sensor_id;sensor_type;location;lat;lon;timestamp;pressure;altitude;pressure_sealevel;temperature;humidity
32083;BME280;18597;48.328;7.932;2023-09-07T00:01:31;99681.66;;;17.26;100.00
32083;BME280;18597;48.328;7.932;2023-09-07T00:03:57;99686.75;;;17.13;100.00
32083;BME280;18597;48.328;7.932;2023-09-07T00:06:23;99682.97;;;17.30;100.00
32083;BME280;18597;48.328;7.932;2023-09-07T00:08:48;99689.56;;;17.28;100.00
32083;BME280;18597;48.328;7.932;2023-09-07T00:11:14;99686.69;;;17.29;100.00
32083;BME280;18597;48.328;7.932;2023-09-07T00:13:40;99685.88;;;17.20;100.00
32083;BME280;18597;48.328;7.932;2023-09-07T00:16:06;99693.31;;;17.18;100.00
32083;BME280;18597;48.328;7.932;2023-09-07T00:18:33;99685.56;;;17.15;100.00
32083;BME280;18597;48.328;7.932;2023-09-07T00:21:00;99680.69;;;17.11;100.00
32083;BME280;18597;48.328;7.932;2023-09-07T00:23:26;99693.53;;;17.01;100.00
32083;BME280;18597;48.328;7.932;2023-09-07T00:25:52;99693.38;;;16.94;100.00
32083;BME280;18597;48.328;7.932;2023-09-07T00:28:18;99691.69;;;16.93;100.00
32083;BME280;18597;48.328;7.932;2023-09-07T00:30:44;99693.88;;;16.89;100.00
32083;BME280;18597;48.328;7.932;2023-09-07T00:33:10;99686.44;;;16.75;100.00
32083;BME280;18597;48.328;7.932;2023-09-07T00:35:36;99688.50;;;16.73;100.00
32083;BME280;18597;48.328;7.932;2023-09-07T00:38:03;99688.94;;;16.69;100.00
32083;BME280;18597;48.328;7.932;2023-09-07T00:40:29;99690.50;;;16.63;100.00
32083;BME280;18597;48.328;7.932;2023-09-07T00:42:55;99684.56;;;16.68;100.00
32083;BME280;18597;48.328;7.932;2023-09-07T00:45:21;99690.47;;;16.47;100.00
32083;BME280;18597;48.328;7.932;2023-09-07T00:47:47;99689.47;;;16.48;100.00
32083;BME280;18597;48.328;7.932;2023-09-07T00:50:13;99690.97;;;16.67;100.00
32083;BME280;18597;48.328;7.932;2023-09-07T00:52:42;99693.84;;;16.65;100.00
32083;BME280;18597;48.328;7.932;2023-09-07T00:55:09;99689.31;;;16.65;100.00
32083;BME280;18597;48.328;7.932;2023-09-07T00:57:36;99688.13;;;16.52;100.00
32083;BME280;18597;48.328;7.932;2023-09-07T01:00:04;99686.59;;;16.57;100.00
32083;BME280;18597;48.328;7.932;2023-09-07T01:02:31;99682.38;;;16.55;100.00
32083;BME280;18597;48.328;7.932;2023-09-07T01:04:57;99688.47;;;16.49;100.00
32083;BME280;18597;48.328;7.932;2023-09-07T01:07:43;99687.94;;;16.45;100.00
32083;BME280;18597;48.328;7.932;2023-09-07T01:10:11;99682.72;;;16.44;100.00
32083;BME280;18597;48.328;7.932;2023-09-07T01:12:40;99686.91;;;16.38;100.00
32083;BME280;18597;48.328;7.932;2023-09-07T01:15:06;99672.41;;;16.39;100.00
32083;BME280;18597;48.328;7.932;2023-09-07T01:17:34;99679.34;;;16.33;100.00
32083;BME280;18597;48.328;7.932;2023-09-07T01:20:04;99680.38;;;16.32;100.00
32083;BME280;18597;48.328;7.932;2023-09-07T01:22:32;99683.19;;;16.31;100.00
32083;BME280;18597;48.328;7.932;2023-09-07T01:24:59;99679.00;;;16.28;100.00
32083;BME280;18597;48.328;7.932;2023-09-07T01:27:26;99679.16;;;16.27;100.00
32083;BME280;18597;48.328;7.932;2023-09-07T01:29:52;99678.50;;;16.25;100.00
32083;BME280;18597;48.328;7.932;2023-09-07T01:32:17;99675.63;;;16.26;100.00
32083;BME280;18597;48.328;7.932;2023-09-07T01:34:43;99679.16;;;16.27;100.00
32083;BME280;18597;48.328;7.932;2023-09-07T01:37:09;99675.81;;;16.25;100.00
32083;BME280;18597;48.328;7.932;2023-09-07T01:39:35;99677.63;;;16.24;100.00
32083;BME280;18597;48.328;7.932;2023-09-07T01:42:01;99674.09;;;16.24;100.00
32083;BME280;18597;48.328;7.932;2023-09-07T01:44:27;99670.22;;;16.18;100.00
32083;BME280;18597;48.328;7.932;2023-09-07T01:46:53;99672.22;;;16.16;100.00
32083;BME280;18597;48.328;7.932;2023-09-07T01:49:19;99672.56;;;16.05;100.00
32083;BME280;18597;48.328;7.932;2023-09-07T01:51:44;99671.53;;;16.06;100.00
32083;BME280;18597;48.328;7.932;2023-09-07T01:54:10;99675.25;;;16.05;100.00
32083;BME280;18597;48.328;7.932;2023-09-07T01:56:36;99672.56;;;16.05;100.00
32083;BME280;18597;48.328;7.932;2023-09-07T01:59:02;99672.22;;;16.16;100.00
32083;BME280;18597;48.328;7.932;2023-09-07T02:01:31;99667.53;;;16.18;100.00
32083;BME280;18597;48.328;7.932;2023-09-07T02:03:57;99667.19;;;16.21;100.00
32083;BME280;18597;48.328;7.932;2023-09-07T02:06:23;99672.22;;;16.16;100.00
32083;BME280;18597;48.328;7.932;2023-09-07T02:08:49;99666.81;;;16.08;100.00
32083;BME280;18597;48.328;7.932;2023-09-07T02:11:15;99674.06;;;15.99;100.00
32083;BME280;18597;48.328;7.932;2023-09-07T02:13:43;99669.19;;;15.95;100.00
32083;BME280;18597;48.328;7.932;2023-09-07T02:16:09;99667.16;;;15.97;100.00
32083;BME280;18597;48.328;7.932;2023-09-07T02:18:36;99670.16;;;15.94;100.00
32083;BME280;18597;48.328;7.932;2023-09-07T02:21:04;99673.19;;;15.91;100.00
32083;BME280;18597;48.328;7.932;2023-09-07T02:23:31;99672.69;;;15.87;100.00
32083;BME280;18597;48.328;7.932;2023-09-07T02:25:58;99674.88;;;15.92;100.00
32083;BME280;18597;48.328;7.932;2023-09-07T02:28:25;99682.09;;;15.83;100.00
32083;BME280;18597;48.328;7.932;2023-09-07T02:30:52;99674.50;;;15.78;100.00
32083;BME280;18597;48.328;7.932;2023-09-07T02:33:18;99672.31;;;15.74;100.00
32083;BME280;18597;48.328;7.932;2023-09-07T02:35:44;99673.13;;;15.66;100.00
32083;BME280;18597;48.328;7.932;2023-09-07T02:38:10;99678.97;;;15.62;100.00
32083;BME280;18597;48.328;7.932;2023-09-07T02:40:43;99674.44;;;15.62;100.00
32083;BME280;18597;48.328;7.932;2023-09-07T02:43:10;99672.91;;;15.60;100.00
32083;BME280;18597;48.328;7.932;2023-09-07T02:45:36;99673.59;;;15.62;100.00
32083;BME280;18597;48.328;7.932;2023-09-07T02:48:02;99673.59;;;15.62;100.00
32083;BME280;18597;48.328;7.932;2023-09-07T02:50:32;99673.69;;;15.52;100.00
32083;BME280;18597;48.328;7.932;2023-09-07T02:52:59;99676.81;;;15.65;100.00
32083;BME280;18597;48.328;7.932;2023-09-07T02:55:26;99671.78;;;15.70;100.00
32083;BME280;18597;48.328;7.932;2023-09-07T02:57:52;99672.28;;;15.66;100.00
32083;BME280;18597;48.328;7.932;2023-09-07T03:00:19;99669.34;;;15.59;100.00
32083;BME280;18597;48.328;7.932;2023-09-07T03:02:45;99667.13;;;15.54;100.00
32083;BME280;18597;48.328;7.932;2023-09-07T03:05:10;99667.78;;;15.48;100.00
32083;BME280;18597;48.328;7.932;2023-09-07T03:07:36;99666.06;;;15.39;100.00
32083;BME280;18597;48.328;7.932;2023-09-07T03:10:05;99668.25;;;15.36;100.00
32083;BME280;18597;48.328;7.932;2023-09-07T03:12:30;99667.50;;;15.25;100.00
32083;BME280;18597;48.328;7.932;2023-09-07T03:14:56;99664.13;;;15.23;100.00
32083;BME280;18597;48.328;7.932;2023-09-07T03:17:22;99662.47;;;15.22;100.00
32083;BME280;18597;48.328;7.932;2023-09-07T03:19:48;99661.63;;;15.22;100.00
32083;BME280;18597;48.328;7.932;2023-09-07T03:22:14;99664.47;;;15.20;100.00
32083;BME280;18597;48.328;7.932;2023-09-07T03:24:40;99665.94;;;15.15;100.00
32083;BME280;18597;48.328;7.932;2023-09-07T03:27:06;99665.09;;;15.14;100.00
32083;BME280;18597;48.328;7.932;2023-09-07T03:29:32;99669.66;;;15.14;100.00
32083;BME280;18597;48.328;7.932;2023-09-07T03:31:59;99667.16;;;15.20;100.00
32083;BME280;18597;48.328;7.932;2023-09-07T03:34:26;99667.00;;;15.22;100.00
32083;BME280;18597;48.328;7.932;2023-09-07T03:36:52;99669.66;;;15.14;100.00
32083;BME280;18597;48.328;7.932;2023-09-07T03:39:17;99667.41;;;15.09;100.00
32083;BME280;18597;48.328;7.932;2023-09-07T03:41:44;99676.16;;;15.11;100.00
32083;BME280;18597;48.328;7.932;2023-09-07T03:44:10;99679.28;;;15.24;100.00
32083;BME280;18597;48.328;7.932;2023-09-07T03:46:36;99679.28;;;15.24;100.00
32083;BME280;18597;48.328;7.932;2023-09-07T03:49:02;99676.63;;;15.33;100.00
32083;BME280;18597;48.328;7.932;2023-09-07T03:51:28;99675.94;;;15.31;100.00
32083;BME280;18597;48.328;7.932;2023-09-07T03:53:54;99678.28;;;15.25;100.00
32083;BME280;18597;48.328;7.932;2023-09-07T03:56:20;99675.44;;;15.27;100.00
32083;BME280;18597;48.328;7.932;2023-09-07T03:58:46;99683.97;;;15.22;100.00
32083;BME280;18597;48.328;7.932;2023-09-07T04:01:13;99678.28;;;15.25;100.00
32083;BME280;18597;48.328;7.932;2023-09-07T04:03:39;99679.59;;;15.21;100.00
32083;BME280;18597;48.328;7.932;2023-09-07T04:06:07;99675.88;;;15.14;100.00
32083;BME280;18597;48.328;7.932;2023-09-07T04:08:33;99679.56;;;15.13;100.00
32083;BME280;18597;48.328;7.932;2023-09-07T04:11:04;99679.22;;;15.16;100.00
32083;BME280;18597;48.328;7.932;2023-09-07T04:13:31;99680.03;;;15.09;100.00
32083;BME280;18597;48.328;7.932;2023-09-07T04:15:57;99683.56;;;15.09;100.00
32083;BME280;18597;48.328;7.932;2023-09-07T04:18:23;99676.50;;;15.08;100.00
32083;BME280;18597;48.328;7.932;2023-09-07T04:20:49;99686.25;;;15.09;100.00
32083;BME280;18597;48.328;7.932;2023-09-07T04:23:15;99684.19;;;15.03;100.00
32083;BME280;18597;48.328;7.932;2023-09-07T04:25:40;99691.38;;;14.94;100.00
32083;BME280;18597;48.328;7.932;2023-09-07T04:28:06;99689.16;;;14.90;100.00
32083;BME280;18597;48.328;7.932;2023-09-07T04:30:38;99685.25;;;14.84;100.00
32083;BME280;18597;48.328;7.932;2023-09-07T04:33:04;99690.25;;;14.79;100.00
32083;BME280;18597;48.328;7.932;2023-09-07T04:35:30;99687.34;;;14.73;100.00
32083;BME280;18597;48.328;7.932;2023-09-07T04:37:56;99690.34;;;14.69;100.00
32083;BME280;18597;48.328;7.932;2023-09-07T04:40:24;99696.28;;;14.55;100.00
32083;BME280;18597;48.328;7.932;2023-09-07T04:42:50;99692.75;;;14.55;100.00
32083;BME280;18597;48.328;7.932;2023-09-07T04:45:16;99697.13;;;14.56;100.00
32083;BME280;18597;48.328;7.932;2023-09-07T04:47:43;99695.22;;;14.48;100.00
32083;BME280;18597;48.328;7.932;2023-09-07T04:50:09;99690.59;;;14.58;100.00
32083;BME280;18597;48.328;7.932;2023-09-07T04:52:36;99700.50;;;14.76;100.00
32083;BME280;18597;48.328;7.932;2023-09-07T04:59:54;99707.66;;;14.93;nan
32083;BME280;18597;48.328;7.932;2023-09-07T05:02:20;99717.31;;;14.78;nan
32083;BME280;18597;48.328;7.932;2023-09-07T05:04:46;99717.91;;;14.89;nan
32083;BME280;18597;48.328;7.932;2023-09-07T05:07:11;99716.41;;;14.95;nan
32083;BME280;18597;48.328;7.932;2023-09-07T05:09:38;99715.97;;;14.99;nan
32083;BME280;18597;48.328;7.932;2023-09-07T05:12:04;99713.66;;;15.05;nan
32083;BME280;18597;48.328;7.932;2023-09-07T05:14:29;99714.78;;;15.02;nan
32083;BME280;18597;48.328;7.932;2023-09-07T05:16:55;99719.03;;;15.05;nan
32083;BME280;18597;48.328;7.932;2023-09-07T05:19:22;99725.03;;;14.98;nan
32083;BME280;18597;48.328;7.932;2023-09-07T05:21:48;99710.38;;;14.93;nan
32083;BME280;18597;48.328;7.932;2023-09-07T05:24:14;99718.88;;;14.88;nan
32083;BME280;18597;48.328;7.932;2023-09-07T05:26:42;99724.38;;;14.79;nan
32083;BME280;18597;48.328;7.932;2023-09-07T05:29:09;99717.53;;;14.84;nan
32083;BME280;18597;48.328;7.932;2023-09-07T05:31:35;99717.97;;;14.80;nan
32083;BME280;18597;48.328;7.932;2023-09-07T05:34:01;99720.38;;;14.83;nan
32083;BME280;18597;48.328;7.932;2023-09-07T05:36:27;99733.34;;;14.87;nan
32083;BME280;18597;48.328;7.932;2023-09-07T05:38:53;99735.19;;;14.87;nan
32083;BME280;18597;48.328;7.932;2023-09-07T05:41:19;99734.47;;;15.03;nan
32083;BME280;18597;48.328;7.932;2023-09-07T05:43:45;99730.63;;;15.31;nan
32083;BME280;18597;48.328;7.932;2023-09-07T05:46:10;99725.34;;;15.47;nan
32083;BME280;18597;48.328;7.932;2023-09-07T05:48:36;99729.25;;;15.53;nan
32083;BME280;18597;48.328;7.932;2023-09-07T05:51:02;99725.97;;;15.67;nan
32083;BME280;18597;48.328;7.932;2023-09-07T05:53:29;99714.75;;;15.80;nan
32083;BME280;18597;48.328;7.932;2023-09-07T05:55:55;99721.34;;;15.94;nan
32083;BME280;18597;48.328;7.932;2023-09-07T05:58:20;99717.00;;;16.09;nan
32083;BME280;18597;48.328;7.932;2023-09-07T06:00:46;99716.38;;;16.23;nan
32083;BME280;18597;48.328;7.932;2023-09-07T06:03:12;99717.09;;;16.50;nan
32083;BME280;18597;48.328;7.932;2023-09-07T06:05:38;99711.25;;;16.95;nan
32083;BME280;18597;48.328;7.932;2023-09-07T06:08:05;99717.78;;;19.85;nan
32083;BME280;18597;48.328;7.932;2023-09-07T06:10:33;99711.09;;;22.75;nan
32083;BME280;18597;48.328;7.932;2023-09-07T06:12:59;99713.34;;;25.66;nan
32083;BME280;18597;48.328;7.932;2023-09-07T06:15:26;99722.94;;;27.73;nan
32083;BME280;18597;48.328;7.932;2023-09-07T06:17:53;99705.22;;;29.23;nan
32083;BME280;18597;48.328;7.932;2023-09-07T06:20:19;99708.00;;;30.00;nan
32083;BME280;18597;48.328;7.932;2023-09-07T06:22:45;99712.56;;;27.28;nan
32083;BME280;18597;48.328;7.932;2023-09-07T06:25:11;99705.44;;;28.71;nan
32083;BME280;18597;48.328;7.932;2023-09-07T06:27:37;99709.03;;;29.94;nan
32083;BME280;18597;48.328;7.932;2023-09-07T06:30:06;99694.00;;;29.46;nan
32083;BME280;18597;48.328;7.932;2023-09-07T06:32:32;99708.41;;;31.54;nan
32083;BME280;18597;48.328;7.932;2023-09-07T06:34:58;99703.88;;;33.60;nan
32083;BME280;18597;48.328;7.932;2023-09-07T06:37:24;99687.16;;;35.52;nan
32083;BME280;18597;48.328;7.932;2023-09-07T06:39:51;99681.78;;;37.03;nan
32083;BME280;18597;48.328;7.932;2023-09-07T06:42:17;99688.84;;;33.76;nan
32083;BME280;18597;48.328;7.932;2023-09-07T06:44:43;99694.88;;;34.97;nan
32083;BME280;18597;48.328;7.932;2023-09-07T06:47:10;99701.06;;;36.19;nan
32083;BME280;18597;48.328;7.932;2023-09-07T06:49:38;99698.63;;;37.72;nan
32083;BME280;18597;48.328;7.932;2023-09-07T06:52:04;99694.06;;;39.34;nan
32083;BME280;18597;48.328;7.932;2023-09-07T06:54:30;99693.50;;;40.60;nan
32083;BME280;18597;48.328;7.932;2023-09-07T06:56:56;99686.69;;;41.69;nan
32083;BME280;18597;48.328;7.932;2023-09-07T06:59:22;99683.31;;;42.43;nan
32083;BME280;18597;48.328;7.932;2023-09-07T07:01:48;99685.81;;;43.32;nan
32083;BME280;18597;48.328;7.932;2023-09-07T07:04:14;99687.53;;;44.18;nan
32083;BME280;18597;48.328;7.932;2023-09-07T07:06:39;99685.34;;;44.80;nan
32083;BME280;18597;48.328;7.932;2023-09-07T07:09:05;99681.81;;;45.11;nan
32083;BME280;18597;48.328;7.932;2023-09-07T07:11:31;99685.53;;;45.59;nan
32083;BME280;18597;48.328;7.932;2023-09-07T07:13:57;99681.22;;;46.12;nan
32083;BME280;18597;48.328;7.932;2023-09-07T07:16:23;99673.19;;;46.50;nan
32083;BME280;18597;48.328;7.932;2023-09-07T07:18:49;99679.81;;;46.57;nan
32083;BME280;18597;48.328;7.932;2023-09-07T07:21:14;99685.28;;;46.69;nan
32083;BME280;18597;48.328;7.932;2023-09-07T07:23:41;99683.97;;;47.02;nan
32083;BME280;18597;48.328;7.932;2023-09-07T07:26:06;99679.66;;;46.89;nan
32083;BME280;18597;48.328;7.932;2023-09-07T07:28:34;99688.66;;;46.94;nan
32083;BME280;18597;48.328;7.932;2023-09-07T07:31:08;99686.13;;;46.89;nan
32083;BME280;18597;48.328;7.932;2023-09-07T07:33:35;99679.56;;;46.46;nan
32083;BME280;18597;48.328;7.932;2023-09-07T07:36:01;99678.59;;;46.78;nan
32083;BME280;18597;48.328;7.932;2023-09-07T07:38:26;99682.78;;;46.84;nan
32083;BME280;18597;48.328;7.932;2023-09-07T07:40:52;99675.97;;;47.08;nan
32083;BME280;18597;48.328;7.932;2023-09-07T07:43:19;99676.72;;;47.05;nan
32083;BME280;18597;48.328;7.932;2023-09-07T07:45:44;99673.69;;;46.55;nan
32083;BME280;18597;48.328;7.932;2023-09-07T07:48:10;99667.84;;;45.30;nan
32083;BME280;18597;48.328;7.932;2023-09-07T07:50:38;99674.38;;;43.98;nan
32083;BME280;18597;48.328;7.932;2023-09-07T07:53:06;99665.72;;;43.09;nan
32083;BME280;18597;48.328;7.932;2023-09-07T07:55:36;99668.34;;;42.93;nan
32083;BME280;18597;48.328;7.932;2023-09-07T07:58:07;99666.66;;;42.38;nan
32083;BME280;18597;48.328;7.932;2023-09-07T08:00:35;99668.69;;;41.32;nan
32083;BME280;18597;48.328;7.932;2023-09-07T08:03:01;99664.09;;;41.74;nan
32083;BME280;18597;48.328;7.932;2023-09-07T08:08:07;99665.63;;;42.43;21.72
32083;BME280;18597;48.328;7.932;2023-09-07T08:10:35;99665.03;;;42.91;21.65
32083;BME280;18597;48.328;7.932;2023-09-07T08:13:03;99663.69;;;42.97;21.46
32083;BME280;18597;48.328;7.932;2023-09-07T08:15:31;99665.38;;;42.89;21.57
32083;BME280;18597;48.328;7.932;2023-09-07T08:17:57;99664.03;;;42.96;21.39
32083;BME280;18597;48.328;7.932;2023-09-07T08:20:26;99658.72;;;42.61;21.58
32083;BME280;18597;48.328;7.932;2023-09-07T08:22:52;99657.69;;;42.45;21.85
32083;BME280;18597;48.328;7.932;2023-09-07T08:25:18;99666.81;;;42.12;22.17
32083;BME280;18597;48.328;7.932;2023-09-07T08:27:44;99666.78;;;40.80;23.76
32083;BME280;18597;48.328;7.932;2023-09-07T08:30:15;99660.19;;;39.36;25.00
32083;BME280;18597;48.328;7.932;2023-09-07T08:32:42;99665.50;;;36.40;28.94
32083;BME280;18597;48.328;7.932;2023-09-07T08:35:10;99671.56;;;32.99;33.78
32083;BME280;18597;48.328;7.932;2023-09-07T08:37:39;99672.41;;;30.43;38.96
32083;BME280;18597;48.328;7.932;2023-09-07T08:40:06;99679.00;;;28.53;43.28
32083;BME280;18597;48.328;7.932;2023-09-07T08:42:36;99688.75;;;27.28;47.32
32083;BME280;18597;48.328;7.932;2023-09-07T08:45:03;99677.84;;;26.45;52.89
32083;BME280;18597;48.328;7.932;2023-09-07T08:47:34;99685.06;;;25.91;58.48
32083;BME280;18597;48.328;7.932;2023-09-07T08:50:02;99674.66;;;25.44;62.84
32083;BME280;18597;48.328;7.932;2023-09-07T08:52:29;99681.00;;;25.20;66.54
32083;BME280;18597;48.328;7.932;2023-09-07T08:54:56;99677.56;;;25.06;68.93
32083;BME280;18597;48.328;7.932;2023-09-07T08:57:25;99675.34;;;24.90;71.00
32083;BME280;18597;48.328;7.932;2023-09-07T08:59:52;99679.75;;;24.91;70.86
32083;BME280;18597;48.328;7.932;2023-09-07T09:02:19;99676.19;;;24.90;73.14
32083;BME280;18597;48.328;7.932;2023-09-07T09:04:44;99684.53;;;24.71;76.01
32083;BME280;18597;48.328;7.932;2023-09-07T09:07:10;99678.13;;;24.58;76.08
32083;BME280;18597;48.328;7.932;2023-09-07T09:09:36;99673.09;;;24.55;78.01
32083;BME280;18597;48.328;7.932;2023-09-07T09:12:09;99673.50;;;24.59;77.79
32083;BME280;18597;48.328;7.932;2023-09-07T09:14:35;99681.44;;;24.67;78.19
32083;BME280;18597;48.328;7.932;2023-09-07T09:17:01;99674.63;;;24.76;77.42
32083;BME280;18597;48.328;7.932;2023-09-07T09:19:32;99676.53;;;24.76;77.62
32083;BME280;18597;48.328;7.932;2023-09-07T09:21:59;99678.09;;;24.65;78.48
32083;BME280;18597;48.328;7.932;2023-09-07T09:24:24;99677.44;;;24.63;79.12
32083;BME280;18597;48.328;7.932;2023-09-07T09:26:50;99669.06;;;24.65;79.71
32083;BME280;18597;48.328;7.932;2023-09-07T09:29:16;99663.38;;;24.66;79.95
32083;BME280;18597;48.328;7.932;2023-09-07T09:31:47;99668.31;;;24.76;77.86
32083;BME280;18597;48.328;7.932;2023-09-07T09:34:13;99672.44;;;24.85;76.85
32083;BME280;18597;48.328;7.932;2023-09-07T09:36:42;99669.44;;;24.93;76.47
32083;BME280;18597;48.328;7.932;2023-09-07T09:39:08;99660.19;;;24.94;78.47
32083;BME280;18597;48.328;7.932;2023-09-07T09:41:35;99664.06;;;25.11;76.12
32083;BME280;18597;48.328;7.932;2023-09-07T09:44:03;99656.50;;;25.32;74.75
32083;BME280;18597;48.328;7.932;2023-09-07T09:46:32;99661.22;;;25.43;72.72
32083;BME280;18597;48.328;7.932;2023-09-07T09:48:58;99656.03;;;25.53;72.44
32083;BME280;18597;48.328;7.932;2023-09-07T09:51:24;99655.53;;;25.63;70.05
32083;BME280;18597;48.328;7.932;2023-09-07T09:53:51;99655.88;;;25.66;70.47
32083;BME280;18597;48.328;7.932;2023-09-07T09:56:19;99658.19;;;25.69;69.75
32083;BME280;18597;48.328;7.932;2023-09-07T09:58:46;99663.50;;;25.83;65.88
32083;BME280;18597;48.328;7.932;2023-09-07T10:01:12;99649.22;;;25.81;66.62
32083;BME280;18597;48.328;7.932;2023-09-07T10:03:45;99653.53;;;25.70;66.38
32083;BME280;18597;48.328;7.932;2023-09-07T10:06:19;99655.38;;;25.76;69.22
32083;BME280;18597;48.328;7.932;2023-09-07T10:09:06;99648.53;;;25.85;70.04
32083;BME280;18597;48.328;7.932;2023-09-07T10:11:34;99661.91;;;25.93;68.34
32083;BME280;18597;48.328;7.932;2023-09-07T10:14:02;99657.78;;;26.03;66.21
32083;BME280;18597;48.328;7.932;2023-09-07T10:16:41;99657.09;;;26.07;67.25
32083;BME280;18597;48.328;7.932;2023-09-07T10:19:24;99649.72;;;26.08;67.12
32083;BME280;18597;48.328;7.932;2023-09-07T10:21:53;99655.38;;;26.24;67.23
32083;BME280;18597;48.328;7.932;2023-09-07T10:24:34;99653.47;;;26.25;63.88
32083;BME280;18597;48.328;7.932;2023-09-07T10:27:04;99646.44;;;26.29;63.80
32083;BME280;18597;48.328;7.932;2023-09-07T10:29:51;99646.81;;;26.33;63.08
32083;BME280;18597;48.328;7.932;2023-09-07T10:32:18;99644.31;;;26.31;63.36
32083;BME280;18597;48.328;7.932;2023-09-07T10:34:44;99643.38;;;26.37;61.82
32083;BME280;18597;48.328;7.932;2023-09-07T10:37:12;99640.78;;;26.42;62.47
32083;BME280;18597;48.328;7.932;2023-09-07T10:39:40;99636.44;;;26.53;59.89
32083;BME280;18597;48.328;7.932;2023-09-07T10:42:24;99631.16;;;26.51;59.70
32083;BME280;18597;48.328;7.932;2023-09-07T10:44:50;99633.47;;;26.54;57.71
32083;BME280;18597;48.328;7.932;2023-09-07T10:47:16;99633.09;;;26.63;58.23
32083;BME280;18597;48.328;7.932;2023-09-07T10:49:42;99634.44;;;26.72;57.97
32083;BME280;18597;48.328;7.932;2023-09-07T10:52:08;99621.94;;;26.88;55.75
32083;BME280;18597;48.328;7.932;2023-09-07T10:54:34;99612.88;;;26.87;56.87
32083;BME280;18597;48.328;7.932;2023-09-07T10:57:10;99613.63;;;27.06;57.89
32083;BME280;18597;48.328;7.932;2023-09-07T10:59:36;99619.84;;;27.13;55.55
32083;BME280;18597;48.328;7.932;2023-09-07T11:02:06;99612.53;;;27.19;54.87
32083;BME280;18597;48.328;7.932;2023-09-07T11:04:32;99613.34;;;27.19;55.42
32083;BME280;18597;48.328;7.932;2023-09-07T11:06:58;99601.44;;;27.25;55.18
32083;BME280;18597;48.328;7.932;2023-09-07T11:09:24;99610.50;;;27.37;54.89
32083;BME280;18597;48.328;7.932;2023-09-07T11:11:50;99612.63;;;27.35;55.74
32083;BME280;18597;48.328;7.932;2023-09-07T11:14:16;99606.09;;;27.36;54.03
32083;BME280;18597;48.328;7.932;2023-09-07T11:16:42;99605.59;;;27.40;53.63
32083;BME280;18597;48.328;7.932;2023-09-07T11:19:09;99599.84;;;27.53;53.31
32083;BME280;18597;48.328;7.932;2023-09-07T11:21:35;99606.75;;;27.55;53.61
32083;BME280;18597;48.328;7.932;2023-09-07T11:24:02;99600.19;;;27.68;54.02
32083;BME280;18597;48.328;7.932;2023-09-07T11:26:44;99595.72;;;27.79;53.06
32083;BME280;18597;48.328;7.932;2023-09-07T11:29:14;99598.22;;;27.80;52.47
32083;BME280;18597;48.328;7.932;2023-09-07T11:31:41;99599.75;;;27.88;51.98
32083;BME280;18597;48.328;7.932;2023-09-07T11:34:15;99599.00;;;27.92;52.87
32083;BME280;18597;48.328;7.932;2023-09-07T11:36:42;99599.94;;;27.98;53.51
32083;BME280;18597;48.328;7.932;2023-09-07T11:39:09;99599.31;;;28.08;52.55
32083;BME280;18597;48.328;7.932;2023-09-07T11:41:41;99596.31;;;28.09;50.76
32083;BME280;18597;48.328;7.932;2023-09-07T11:44:08;99593.91;;;28.13;52.26
32083;BME280;18597;48.328;7.932;2023-09-07T11:46:34;99591.16;;;28.13;51.61
32083;BME280;18597;48.328;7.932;2023-09-07T11:49:00;99589.97;;;28.09;51.67
32083;BME280;18597;48.328;7.932;2023-09-07T11:51:26;99587.50;;;28.24;51.81
32083;BME280;18597;48.328;7.932;2023-09-07T11:53:52;99592.38;;;28.34;53.34
32083;BME280;18597;48.328;7.932;2023-09-07T11:56:18;99588.22;;;28.48;51.83
32083;BME280;18597;48.328;7.932;2023-09-07T11:58:44;99586.91;;;28.51;50.67
32083;BME280;18597;48.328;7.932;2023-09-07T12:01:10;99580.31;;;28.52;50.45
32083;BME280;18597;48.328;7.932;2023-09-07T12:03:36;99574.16;;;28.61;50.79
32083;BME280;18597;48.328;7.932;2023-09-07T12:06:01;99581.66;;;28.66;50.10
32083;BME280;18597;48.328;7.932;2023-09-07T12:08:28;99590.47;;;28.68;51.48
32083;BME280;18597;48.328;7.932;2023-09-07T12:10:54;99583.63;;;28.70;50.26
32083;BME280;18597;48.328;7.932;2023-09-07T12:13:19;99585.66;;;28.75;49.95
32083;BME280;18597;48.328;7.932;2023-09-07T12:15:45;99584.13;;;28.84;50.58
32083;BME280;18597;48.328;7.932;2023-09-07T12:18:11;99581.34;;;28.96;50.11
32083;BME280;18597;48.328;7.932;2023-09-07T12:20:37;99581.38;;;29.01;50.89
32083;BME280;18597;48.328;7.932;2023-09-07T12:23:03;99578.41;;;29.02;48.91
32083;BME280;18597;48.328;7.932;2023-09-07T12:25:30;99565.78;;;29.07;49.05
32083;BME280;18597;48.328;7.932;2023-09-07T12:27:56;99565.53;;;29.08;48.03
32083;BME280;18597;48.328;7.932;2023-09-07T12:30:22;99571.94;;;29.14;48.92
32083;BME280;18597;48.328;7.932;2023-09-07T12:32:50;99567.47;;;29.29;48.62
32083;BME280;18597;48.328;7.932;2023-09-07T12:35:16;99566.72;;;29.34;49.09
32083;BME280;18597;48.328;7.932;2023-09-07T12:37:42;99562.88;;;29.35;48.13
32083;BME280;18597;48.328;7.932;2023-09-07T12:40:08;99564.88;;;29.40;48.14
32083;BME280;18597;48.328;7.932;2023-09-07T12:42:40;99557.59;;;29.50;48.44
32083;BME280;18597;48.328;7.932;2023-09-07T12:45:09;99557.44;;;29.62;47.92
32083;BME280;18597;48.328;7.932;2023-09-07T12:47:36;99552.53;;;29.64;47.56
32083;BME280;18597;48.328;7.932;2023-09-07T12:50:02;99558.31;;;29.63;46.65
32083;BME280;18597;48.328;7.932;2023-09-07T12:52:28;99555.56;;;29.63;46.45
32083;BME280;18597;48.328;7.932;2023-09-07T12:54:54;99548.88;;;29.59;45.80
32083;BME280;18597;48.328;7.932;2023-09-07T12:57:20;99539.78;;;29.58;45.99
32083;BME280;18597;48.328;7.932;2023-09-07T12:59:46;99549.81;;;29.69;46.92
32083;BME280;18597;48.328;7.932;2023-09-07T13:02:11;99551.06;;;29.83;47.63
32083;BME280;18597;48.328;7.932;2023-09-07T13:04:37;99543.06;;;29.82;45.42
32083;BME280;18597;48.328;7.932;2023-09-07T13:07:03;99538.09;;;29.79;45.84
32083;BME280;18597;48.328;7.932;2023-09-07T13:09:29;99545.84;;;29.82;44.81